sensor_id;sensor_type;location;lat;lon;timestamp;P1;durP1;ratioP1;P2;durP2;ratioP2
75930;SDS011;64609;47.052;15.462;2023-04-24T00:01:42;5.10;;;4.57;;
75930;SDS011;64609;47.052;15.462;2023-04-24T00:04:08;5.88;;;5.15;;
75930;SDS011;64609;47.052;15.462;2023-04-24T00:06:36;8.35;;;4.72;;
75930;SDS011;64609;47.052;15.462;2023-04-24T00:09:02;5.82;;;4.60;;
75930;SDS011;64609;47.052;15.462;2023-04-24T00:11:29;5.10;;;4.60;;
75930;SDS011;64609;47.052;15.462;2023-04-24T00:13:55;5.68;;;4.57;;
75930;SDS011;64609;47.052;15.462;2023-04-24T00:16:21;6.07;;;4.57;;
75930;SDS011;64609;47.052;15.462;2023-04-24T00:18:47;5.28;;;4.50;;
75930;SDS011;64609;47.052;15.462;2023-04-24T00:21:17;5.05;;;4.53;;
75930;SDS011;64609;47.052;15.462;2023-04-24T00:23:43;7.25;;;4.60;;
75930;SDS011;64609;47.052;15.462;2023-04-24T00:26:09;5.18;;;4.65;;
75930;SDS011;64609;47.052;15.462;2023-04-24T00:28:35;5.60;;;4.00;;
75930;SDS011;64609;47.052;15.462;2023-04-24T00:31:01;5.65;;;4.07;;
75930;SDS011;64609;47.052;15.462;2023-04-24T00:33:26;4.25;;;3.85;;
75930;SDS011;64609;47.052;15.462;2023-04-24T00:35:52;5.10;;;4.05;;
75930;SDS011;64609;47.052;15.462;2023-04-24T00:38:18;5.35;;;4.00;;
75930;SDS011;64609;47.052;15.462;2023-04-24T00:40:43;4.43;;;4.00;;
75930;SDS011;64609;47.052;15.462;2023-04-24T00:43:09;5.00;;;3.65;;
75930;SDS011;64609;47.052;15.462;2023-04-24T00:45:36;4.70;;;3.92;;
75930;SDS011;64609;47.052;15.462;2023-04-24T00:48:01;5.15;;;4.05;;
75930;SDS011;64609;47.052;15.462;2023-04-24T00:50:28;4.65;;;4.03;;
75930;SDS011;64609;47.052;15.462;2023-04-24T00:52:53;5.88;;;4.43;;
75930;SDS011;64609;47.052;15.462;2023-04-24T00:55:19;4.35;;;3.95;;
75930;SDS011;64609;47.052;15.462;2023-04-24T00:57:45;4.78;;;4.30;;
75930;SDS011;64609;47.052;15.462;2023-04-24T01:00:12;6.88;;;3.90;;
75930;SDS011;64609;47.052;15.462;2023-04-24T01:02:39;4.65;;;4.10;;
75930;SDS011;64609;47.052;15.462;2023-04-24T01:07:34;5.03;;;4.35;;
75930;SDS011;64609;47.052;15.462;2023-04-24T01:10:00;4.72;;;4.05;;
75930;SDS011;64609;47.052;15.462;2023-04-24T01:12:26;4.90;;;4.03;;
75930;SDS011;64609;47.052;15.462;2023-04-24T01:14:52;5.97;;;4.35;;
75930;SDS011;64609;47.052;15.462;2023-04-24T01:17:19;5.68;;;3.97;;
75930;SDS011;64609;47.052;15.462;2023-04-24T01:19:45;4.75;;;4.03;;
75930;SDS011;64609;47.052;15.462;2023-04-24T01:22:14;4.75;;;4.25;;
75930;SDS011;64609;47.052;15.462;2023-04-24T01:24:41;5.70;;;4.67;;
75930;SDS011;64609;47.052;15.462;2023-04-24T01:27:07;5.18;;;4.40;;
75930;SDS011;64609;47.052;15.462;2023-04-24T01:29:35;5.82;;;4.10;;
75930;SDS011;64609;47.052;15.462;2023-04-24T01:32:02;4.80;;;4.32;;
75930;SDS011;64609;47.052;15.462;2023-04-24T01:34:28;6.72;;;4.47;;
75930;SDS011;64609;47.052;15.462;2023-04-24T01:36:54;6.85;;;4.45;;
75930;SDS011;64609;47.052;15.462;2023-04-24T01:39:21;6.00;;;4.50;;
75930;SDS011;64609;47.052;15.462;2023-04-24T01:41:51;5.10;;;4.60;;
75930;SDS011;64609;47.052;15.462;2023-04-24T01:44:17;5.75;;;4.75;;
75930;SDS011;64609;47.052;15.462;2023-04-24T01:46:43;5.32;;;4.78;;
75930;SDS011;64609;47.052;15.462;2023-04-24T01:49:09;9.38;;;4.90;;
75930;SDS011;64609;47.052;15.462;2023-04-24T01:51:35;6.55;;;4.60;;
75930;SDS011;64609;47.052;15.462;2023-04-24T01:54:01;5.72;;;4.82;;
75930;SDS011;64609;47.052;15.462;2023-04-24T01:56:28;6.72;;;5.38;;
75930;SDS011;64609;47.052;15.462;2023-04-24T01:58:55;6.07;;;5.10;;
75930;SDS011;64609;47.052;15.462;2023-04-24T02:01:23;7.63;;;5.00;;
75930;SDS011;64609;47.052;15.462;2023-04-24T02:03:49;6.20;;;5.25;;
75930;SDS011;64609;47.052;15.462;2023-04-24T02:06:15;7.47;;;4.85;;
75930;SDS011;64609;47.052;15.462;2023-04-24T02:08:40;6.35;;;5.47;;
75930;SDS011;64609;47.052;15.462;2023-04-24T02:11:08;6.75;;;5.20;;
75930;SDS011;64609;47.052;15.462;2023-04-24T02:13:34;6.35;;;4.95;;
75930;SDS011;64609;47.052;15.462;2023-04-24T02:15:59;8.55;;;5.00;;
75930;SDS011;64609;47.052;15.462;2023-04-24T02:18:25;6.60;;;4.38;;
75930;SDS011;64609;47.052;15.462;2023-04-24T02:20:51;6.28;;;4.65;;
75930;SDS011;64609;47.052;15.462;2023-04-24T02:23:16;8.52;;;5.25;;
75930;SDS011;64609;47.052;15.462;2023-04-24T02:25:42;6.32;;;5.35;;
75930;SDS011;64609;47.052;15.462;2023-04-24T02:28:07;6.35;;;5.25;;
75930;SDS011;64609;47.052;15.462;2023-04-24T02:30:33;5.80;;;4.90;;
75930;SDS011;64609;47.052;15.462;2023-04-24T02:32:59;7.15;;;5.32;;
75930;SDS011;64609;47.052;15.462;2023-04-24T02:35:24;7.43;;;5.45;;
75930;SDS011;64609;47.052;15.462;2023-04-24T02:37:50;7.28;;;5.75;;
75930;SDS011;64609;47.052;15.462;2023-04-24T02:40:16;6.68;;;5.55;;
75930;SDS011;64609;47.052;15.462;2023-04-24T02:42:41;9.00;;;5.93;;
75930;SDS011;64609;47.052;15.462;2023-04-24T02:45:07;8.63;;;6.70;;
75930;SDS011;64609;47.052;15.462;2023-04-24T02:47:33;8.77;;;6.03;;
75930;SDS011;64609;47.052;15.462;2023-04-24T02:49:58;9.45;;;6.60;;
75930;SDS011;64609;47.052;15.462;2023-04-24T02:52:24;7.88;;;6.18;;
75930;SDS011;64609;47.052;15.462;2023-04-24T02:54:50;7.43;;;6.00;;
75930;SDS011;64609;47.052;15.462;2023-04-24T02:57:15;9.73;;;6.30;;
75930;SDS011;64609;47.052;15.462;2023-04-24T02:59:41;8.95;;;6.55;;
75930;SDS011;64609;47.052;15.462;2023-04-24T03:02:06;7.03;;;6.28;;
75930;SDS011;64609;47.052;15.462;2023-04-24T03:04:32;12.18;;;6.40;;
75930;SDS011;64609;47.052;15.462;2023-04-24T03:06:58;7.70;;;5.55;;
75930;SDS011;64609;47.052;15.462;2023-04-24T03:09:23;10.15;;;6.05;;
75930;SDS011;64609;47.052;15.462;2023-04-24T03:11:49;7.00;;;5.75;;
75930;SDS011;64609;47.052;15.462;2023-04-24T03:14:15;9.20;;;6.22;;
75930;SDS011;64609;47.052;15.462;2023-04-24T03:16:41;9.32;;;5.57;;
75930;SDS011;64609;47.052;15.462;2023-04-24T03:19:08;11.40;;;5.88;;
75930;SDS011;64609;47.052;15.462;2023-04-24T03:21:33;8.48;;;6.25;;
75930;SDS011;64609;47.052;15.462;2023-04-24T03:24:00;7.13;;;5.63;;
75930;SDS011;64609;47.052;15.462;2023-04-24T03:26:27;6.60;;;5.90;;
75930;SDS011;64609;47.052;15.462;2023-04-24T03:28:52;8.65;;;5.70;;
75930;SDS011;64609;47.052;15.462;2023-04-24T03:31:18;9.98;;;5.85;;
75930;SDS011;64609;47.052;15.462;2023-04-24T03:33:46;8.48;;;6.18;;
75930;SDS011;64609;47.052;15.462;2023-04-24T03:36:11;8.02;;;5.88;;
75930;SDS011;64609;47.052;15.462;2023-04-24T03:38:37;11.60;;;6.07;;
75930;SDS011;64609;47.052;15.462;2023-04-24T03:41:02;11.00;;;6.45;;
75930;SDS011;64609;47.052;15.462;2023-04-24T03:43:28;8.02;;;5.68;;
75930;SDS011;64609;47.052;15.462;2023-04-24T03:45:54;10.75;;;6.03;;
75930;SDS011;64609;47.052;15.462;2023-04-24T03:48:19;7.72;;;6.35;;
75930;SDS011;64609;47.052;15.462;2023-04-24T03:50:45;9.13;;;5.93;;
75930;SDS011;64609;47.052;15.462;2023-04-24T03:53:11;9.23;;;5.95;;
75930;SDS011;64609;47.052;15.462;2023-04-24T03:55:36;7.75;;;6.20;;
75930;SDS011;64609;47.052;15.462;2023-04-24T03:58:02;9.98;;;6.00;;
75930;SDS011;64609;47.052;15.462;2023-04-24T04:00:27;6.90;;;5.80;;
75930;SDS011;64609;47.052;15.462;2023-04-24T04:02:53;11.98;;;6.07;;
75930;SDS011;64609;47.052;15.462;2023-04-24T04:05:19;7.32;;;5.72;;
75930;SDS011;64609;47.052;15.462;2023-04-24T04:07:44;9.45;;;6.35;;
75930;SDS011;64609;47.052;15.462;2023-04-24T04:10:10;9.10;;;6.50;;
75930;SDS011;64609;47.052;15.462;2023-04-24T04:12:36;10.38;;;6.53;;
75930;SDS011;64609;47.052;15.462;2023-04-24T04:15:01;9.85;;;6.60;;
75930;SDS011;64609;47.052;15.462;2023-04-24T04:17:27;7.63;;;6.25;;
75930;SDS011;64609;47.052;15.462;2023-04-24T04:19:53;7.45;;;6.57;;
75930;SDS011;64609;47.052;15.462;2023-04-24T04:22:20;10.73;;;6.50;;
75930;SDS011;64609;47.052;15.462;2023-04-24T04:24:45;7.95;;;6.13;;
75930;SDS011;64609;47.052;15.462;2023-04-24T04:27:11;10.20;;;6.05;;
75930;SDS011;64609;47.052;15.462;2023-04-24T04:29:37;10.98;;;6.32;;
75930;SDS011;64609;47.052;15.462;2023-04-24T04:32:03;8.32;;;6.25;;
75930;SDS011;64609;47.052;15.462;2023-04-24T04:34:29;9.25;;;6.13;;
75930;SDS011;64609;47.052;15.462;2023-04-24T04:36:56;9.93;;;6.95;;
75930;SDS011;64609;47.052;15.462;2023-04-24T04:39:24;7.30;;;6.18;;
75930;SDS011;64609;47.052;15.462;2023-04-24T04:41:50;12.30;;;5.82;;
75930;SDS011;64609;47.052;15.462;2023-04-24T04:44:15;12.18;;;6.72;;
75930;SDS011;64609;47.052;15.462;2023-04-24T04:46:41;13.75;;;6.30;;
75930;SDS011;64609;47.052;15.462;2023-04-24T04:49:07;9.23;;;6.78;;
75930;SDS011;64609;47.052;15.462;2023-04-24T04:51:34;9.40;;;6.10;;
75930;SDS011;64609;47.052;15.462;2023-04-24T04:53:59;11.05;;;5.50;;
75930;SDS011;64609;47.052;15.462;2023-04-24T04:56:25;11.27;;;6.90;;
75930;SDS011;64609;47.052;15.462;2023-04-24T04:58:51;11.60;;;6.70;;
75930;SDS011;64609;47.052;15.462;2023-04-24T05:01:16;11.07;;;6.20;;
75930;SDS011;64609;47.052;15.462;2023-04-24T05:03:42;8.70;;;6.47;;
75930;SDS011;64609;47.052;15.462;2023-04-24T05:06:08;9.77;;;6.20;;
75930;SDS011;64609;47.052;15.462;2023-04-24T05:08:34;7.85;;;6.05;;
75930;SDS011;64609;47.052;15.462;2023-04-24T05:10:59;14.90;;;7.28;;
75930;SDS011;64609;47.052;15.462;2023-04-24T05:13:25;13.48;;;8.35;;
75930;SDS011;64609;47.052;15.462;2023-04-24T05:15:51;12.50;;;7.47;;
75930;SDS011;64609;47.052;15.462;2023-04-24T05:18:17;13.38;;;7.75;;
75930;SDS011;64609;47.052;15.462;2023-04-24T05:20:43;14.68;;;8.25;;
75930;SDS011;64609;47.052;15.462;2023-04-24T05:23:09;14.23;;;8.30;;
75930;SDS011;64609;47.052;15.462;2023-04-24T05:25:35;10.68;;;8.38;;
75930;SDS011;64609;47.052;15.462;2023-04-24T05:28:01;11.30;;;8.50;;
75930;SDS011;64609;47.052;15.462;2023-04-24T05:30:27;8.90;;;7.32;;
75930;SDS011;64609;47.052;15.462;2023-04-24T05:32:53;12.13;;;8.63;;
75930;SDS011;64609;47.052;15.462;2023-04-24T05:35:18;16.63;;;8.45;;
75930;SDS011;64609;47.052;15.462;2023-04-24T05:37:44;14.05;;;7.82;;
75930;SDS011;64609;47.052;15.462;2023-04-24T05:40:10;13.20;;;9.23;;
75930;SDS011;64609;47.052;15.462;2023-04-24T05:42:36;14.32;;;9.38;;
75930;SDS011;64609;47.052;15.462;2023-04-24T05:45:02;12.18;;;9.23;;
75930;SDS011;64609;47.052;15.462;2023-04-24T05:47:29;15.60;;;9.52;;
75930;SDS011;64609;47.052;15.462;2023-04-24T05:49:55;13.48;;;9.05;;
75930;SDS011;64609;47.052;15.462;2023-04-24T05:52:20;14.13;;;9.45;;
75930;SDS011;64609;47.052;15.462;2023-04-24T05:54:46;17.42;;;10.20;;
75930;SDS011;64609;47.052;15.462;2023-04-24T05:57:12;14.77;;;9.25;;
75930;SDS011;64609;47.052;15.462;2023-04-24T05:59:37;13.40;;;10.68;;
75930;SDS011;64609;47.052;15.462;2023-04-24T06:02:03;13.95;;;11.27;;
75930;SDS011;64609;47.052;15.462;2023-04-24T06:04:29;18.35;;;10.50;;
75930;SDS011;64609;47.052;15.462;2023-04-24T06:06:55;15.50;;;10.85;;
75930;SDS011;64609;47.052;15.462;2023-04-24T06:09:21;14.82;;;10.65;;
75930;SDS011;64609;47.052;15.462;2023-04-24T06:11:47;14.68;;;9.85;;
75930;SDS011;64609;47.052;15.462;2023-04-24T06:14:14;15.32;;;8.90;;
75930;SDS011;64609;47.052;15.462;2023-04-24T06:16:41;13.48;;;9.40;;
75930;SDS011;64609;47.052;15.462;2023-04-24T06:19:07;13.23;;;9.07;;
75930;SDS011;64609;47.052;15.462;2023-04-24T06:21:33;12.65;;;8.43;;
75930;SDS011;64609;47.052;15.462;2023-04-24T06:23:59;13.38;;;9.50;;
75930;SDS011;64609;47.052;15.462;2023-04-24T06:26:24;10.35;;;8.35;;
75930;SDS011;64609;47.052;15.462;2023-04-24T06:28:51;11.07;;;8.23;;
75930;SDS011;64609;47.052;15.462;2023-04-24T06:31:18;9.98;;;7.85;;
75930;SDS011;64609;47.052;15.462;2023-04-24T06:33:45;11.27;;;8.63;;
75930;SDS011;64609;47.052;15.462;2023-04-24T06:36:11;11.90;;;8.38;;
75930;SDS011;64609;47.052;15.462;2023-04-24T06:38:37;12.23;;;7.97;;
75930;SDS011;64609;47.052;15.462;2023-04-24T06:41:03;11.70;;;8.55;;
75930;SDS011;64609;47.052;15.462;2023-04-24T06:43:30;18.73;;;8.73;;
75930;SDS011;64609;47.052;15.462;2023-04-24T06:45:57;20.00;;;9.00;;
75930;SDS011;64609;47.052;15.462;2023-04-24T06:48:23;18.20;;;8.23;;
75930;SDS011;64609;47.052;15.462;2023-04-24T06:50:50;11.85;;;8.27;;
75930;SDS011;64609;47.052;15.462;2023-04-24T06:53:16;14.35;;;9.40;;
75930;SDS011;64609;47.052;15.462;2023-04-24T06:55:41;17.98;;;9.10;;
75930;SDS011;64609;47.052;15.462;2023-04-24T06:58:08;14.30;;;9.15;;
75930;SDS011;64609;47.052;15.462;2023-04-24T07:00:34;11.60;;;8.48;;
75930;SDS011;64609;47.052;15.462;2023-04-24T07:03:00;17.00;;;8.80;;
75930;SDS011;64609;47.052;15.462;2023-04-24T07:05:25;14.73;;;9.05;;
75930;SDS011;64609;47.052;15.462;2023-04-24T07:07:51;11.73;;;8.52;;
75930;SDS011;64609;47.052;15.462;2023-04-24T07:10:17;13.25;;;8.18;;
75930;SDS011;64609;47.052;15.462;2023-04-24T07:12:43;14.63;;;8.90;;
75930;SDS011;64609;47.052;15.462;2023-04-24T07:15:09;16.48;;;9.57;;
75930;SDS011;64609;47.052;15.462;2023-04-24T07:17:35;21.52;;;10.45;;
75930;SDS011;64609;47.052;15.462;2023-04-24T07:20:03;23.42;;;10.73;;
75930;SDS011;64609;47.052;15.462;2023-04-24T07:22:30;19.80;;;10.45;;
75930;SDS011;64609;47.052;15.462;2023-04-24T07:24:56;21.15;;;11.23;;
75930;SDS011;64609;47.052;15.462;2023-04-24T07:27:21;20.20;;;11.50;;
75930;SDS011;64609;47.052;15.462;2023-04-24T07:29:47;18.73;;;10.95;;
75930;SDS011;64609;47.052;15.462;2023-04-24T07:32:13;16.35;;;10.30;;
75930;SDS011;64609;47.052;15.462;2023-04-24T07:34:38;18.80;;;10.85;;
75930;SDS011;64609;47.052;15.462;2023-04-24T07:37:04;18.92;;;11.57;;
75930;SDS011;64609;47.052;15.462;2023-04-24T07:39:30;17.67;;;11.13;;
75930;SDS011;64609;47.052;15.462;2023-04-24T07:41:56;23.85;;;10.98;;
75930;SDS011;64609;47.052;15.462;2023-04-24T07:44:23;25.88;;;12.73;;
75930;SDS011;64609;47.052;15.462;2023-04-24T07:46:49;22.48;;;12.48;;
75930;SDS011;64609;47.052;15.462;2023-04-24T07:49:14;17.17;;;11.73;;
75930;SDS011;64609;47.052;15.462;2023-04-24T07:51:40;17.90;;;11.80;;
75930;SDS011;64609;47.052;15.462;2023-04-24T07:54:06;16.30;;;11.32;;
75930;SDS011;64609;47.052;15.462;2023-04-24T07:56:32;20.33;;;11.43;;
75930;SDS011;64609;47.052;15.462;2023-04-24T07:58:58;22.00;;;11.45;;
75930;SDS011;64609;47.052;15.462;2023-04-24T08:01:24;21.33;;;12.82;;
75930;SDS011;64609;47.052;15.462;2023-04-24T08:03:50;20.83;;;12.85;;
75930;SDS011;64609;47.052;15.462;2023-04-24T08:06:16;24.63;;;13.95;;
75930;SDS011;64609;47.052;15.462;2023-04-24T08:08:42;22.30;;;12.90;;
75930;SDS011;64609;47.052;15.462;2023-04-24T08:11:08;20.92;;;12.23;;
75930;SDS011;64609;47.052;15.462;2023-04-24T08:13:33;27.67;;;13.38;;
75930;SDS011;64609;47.052;15.462;2023-04-24T08:15:59;20.65;;;14.13;;
75930;SDS011;64609;47.052;15.462;2023-04-24T08:18:25;23.20;;;13.68;;
75930;SDS011;64609;47.052;15.462;2023-04-24T08:20:51;29.08;;;14.07;;
75930;SDS011;64609;47.052;15.462;2023-04-24T08:23:16;26.20;;;14.73;;
75930;SDS011;64609;47.052;15.462;2023-04-24T08:25:42;21.75;;;14.07;;
75930;SDS011;64609;47.052;15.462;2023-04-24T08:28:08;24.75;;;13.80;;
75930;SDS011;64609;47.052;15.462;2023-04-24T08:30:35;22.65;;;14.35;;
75930;SDS011;64609;47.052;15.462;2023-04-24T08:33:01;28.40;;;14.30;;
75930;SDS011;64609;47.052;15.462;2023-04-24T08:35:27;24.83;;;14.40;;
75930;SDS011;64609;47.052;15.462;2023-04-24T08:37:53;24.83;;;14.05;;
75930;SDS011;64609;47.052;15.462;2023-04-24T08:40:18;19.58;;;14.13;;
75930;SDS011;64609;47.052;15.462;2023-04-24T08:42:51;23.55;;;13.75;;
75930;SDS011;64609;47.052;15.462;2023-04-24T08:45:21;24.00;;;14.07;;
75930;SDS011;64609;47.052;15.462;2023-04-24T08:47:47;28.45;;;14.57;;
75930;SDS011;64609;47.052;15.462;2023-04-24T08:50:14;21.55;;;14.48;;
75930;SDS011;64609;47.052;15.462;2023-04-24T08:52:41;20.92;;;14.77;;
75930;SDS011;64609;47.052;15.462;2023-04-24T08:55:07;24.17;;;15.48;;
75930;SDS011;64609;47.052;15.462;2023-04-24T08:57:33;27.77;;;15.60;;
75930;SDS011;64609;47.052;15.462;2023-04-24T09:00:00;20.88;;;14.23;;
75930;SDS011;64609;47.052;15.462;2023-04-24T09:02:27;20.73;;;13.68;;
75930;SDS011;64609;47.052;15.462;2023-04-24T09:04:53;23.08;;;14.63;;
75930;SDS011;64609;47.052;15.462;2023-04-24T09:07:22;26.23;;;14.93;;
75930;SDS011;64609;47.052;15.462;2023-04-24T09:09:50;20.40;;;14.88;;
75930;SDS011;64609;47.052;15.462;2023-04-24T09:12:17;24.13;;;15.07;;
75930;SDS011;64609;47.052;15.462;2023-04-24T09:14:44;29.45;;;15.77;;
75930;SDS011;64609;47.052;15.462;2023-04-24T09:17:10;27.02;;;15.38;;
75930;SDS011;64609;47.052;15.462;2023-04-24T09:19:36;21.30;;;14.55;;
75930;SDS011;64609;47.052;15.462;2023-04-24T09:22:06;26.45;;;13.32;;
75930;SDS011;64609;47.052;15.462;2023-04-24T09:24:33;14.20;;;8.60;;
75930;SDS011;64609;47.052;15.462;2023-04-24T09:26:59;16.08;;;7.50;;
75930;SDS011;64609;47.052;15.462;2023-04-24T09:29:26;12.23;;;6.25;;
75930;SDS011;64609;47.052;15.462;2023-04-24T09:31:53;7.55;;;5.82;;
75930;SDS011;64609;47.052;15.462;2023-04-24T09:34:22;7.57;;;5.60;;
75930;SDS011;64609;47.052;15.462;2023-04-24T09:36:49;8.85;;;5.25;;
75930;SDS011;64609;47.052;15.462;2023-04-24T09:39:15;9.93;;;5.53;;
75930;SDS011;64609;47.052;15.462;2023-04-24T09:41:48;11.25;;;4.78;;
75930;SDS011;64609;47.052;15.462;2023-04-24T09:44:19;8.05;;;4.90;;
75930;SDS011;64609;47.052;15.462;2023-04-24T09:46:49;6.38;;;4.50;;
75930;SDS011;64609;47.052;15.462;2023-04-24T09:49:26;5.32;;;3.92;;
75930;SDS011;64609;47.052;15.462;2023-04-24T09:52:08;6.10;;;3.53;;
75930;SDS011;64609;47.052;15.462;2023-04-24T09:54:35;6.50;;;3.42;;
75930;SDS011;64609;47.052;15.462;2023-04-24T09:57:03;6.90;;;3.50;;
75930;SDS011;64609;47.052;15.462;2023-04-24T09:59:30;3.90;;;2.80;;
75930;SDS011;64609;47.052;15.462;2023-04-24T10:01:56;6.43;;;3.20;;
75930;SDS011;64609;47.052;15.462;2023-04-24T10:04:26;4.22;;;2.85;;
75930;SDS011;64609;47.052;15.462;2023-04-24T10:06:54;4.57;;;2.90;;
75930;SDS011;64609;47.052;15.462;2023-04-24T10:09:21;4.70;;;3.08;;
75930;SDS011;64609;47.052;15.462;2023-04-24T10:11:50;3.75;;;2.60;;
75930;SDS011;64609;47.052;15.462;2023-04-24T10:14:20;2.30;;;2.10;;
75930;SDS011;64609;47.052;15.462;2023-04-24T10:16:48;4.93;;;2.60;;
75930;SDS011;64609;47.052;15.462;2023-04-24T10:19:15;3.95;;;2.05;;
75930;SDS011;64609;47.052;15.462;2023-04-24T10:21:43;1.98;;;1.63;;
75930;SDS011;64609;47.052;15.462;2023-04-24T10:24:21;2.88;;;2.45;;
75930;SDS011;64609;47.052;15.462;2023-04-24T10:26:46;4.00;;;2.35;;
75930;SDS011;64609;47.052;15.462;2023-04-24T10:29:14;3.67;;;2.50;;
75930;SDS011;64609;47.052;15.462;2023-04-24T10:31:41;3.25;;;2.50;;
75930;SDS011;64609;47.052;15.462;2023-04-24T10:34:10;4.43;;;2.50;;
75930;SDS011;64609;47.052;15.462;2023-04-24T10:36:37;4.30;;;2.45;;
75930;SDS011;64609;47.052;15.462;2023-04-24T10:39:07;6.80;;;2.80;;
75930;SDS011;64609;47.052;15.462;2023-04-24T10:41:39;3.85;;;2.20;;
75930;SDS011;64609;47.052;15.462;2023-04-24T10:44:05;4.20;;;2.42;;
75930;SDS011;64609;47.052;15.462;2023-04-24T10:46:35;2.53;;;1.95;;
75930;SDS011;64609;47.052;15.462;2023-04-24T10:49:05;2.42;;;1.80;;
75930;SDS011;64609;47.052;15.462;2023-04-24T10:59:49;4.55;;;2.35;;
75930;SDS011;64609;47.052;15.462;2023-04-24T11:05:02;2.92;;;1.95;;
75930;SDS011;64609;47.052;15.462;2023-04-24T11:07:29;4.00;;;2.13;;
75930;SDS011;64609;47.052;15.462;2023-04-24T11:10:00;2.22;;;1.63;;
75930;SDS011;64609;47.052;15.462;2023-04-24T11:12:26;2.75;;;1.60;;
75930;SDS011;64609;47.052;15.462;2023-04-24T11:20:16;2.55;;;1.55;;
75930;SDS011;64609;47.052;15.462;2023-04-24T11:22:42;3.17;;;1.60;;
75930;SDS011;64609;47.052;15.462;2023-04-24T11:25:08;2.78;;;1.63;;
75930;SDS011;64609;47.052;15.462;2023-04-24T11:27:43;3.75;;;1.75;;
75930;SDS011;64609;47.052;15.462;2023-04-24T11:30:11;4.03;;;1.73;;
75930;SDS011;64609;47.052;15.462;2023-04-24T11:32:38;2.72;;;1.63;;
75930;SDS011;64609;47.052;15.462;2023-04-24T11:37:46;2.30;;;1.50;;
75930;SDS011;64609;47.052;15.462;2023-04-24T11:40:16;2.10;;;1.30;;
75930;SDS011;64609;47.052;15.462;2023-04-24T11:42:48;2.20;;;1.40;;
75930;SDS011;64609;47.052;15.462;2023-04-24T11:45:17;1.67;;;1.15;;
75930;SDS011;64609;47.052;15.462;2023-04-24T11:47:46;3.70;;;1.30;;
75930;SDS011;64609;47.052;15.462;2023-04-24T11:50:12;2.03;;;1.40;;
75930;SDS011;64609;47.052;15.462;2023-04-24T11:52:40;4.15;;;1.50;;
75930;SDS011;64609;47.052;15.462;2023-04-24T11:55:28;2.78;;;1.30;;
75930;SDS011;64609;47.052;15.462;2023-04-24T11:57:54;2.03;;;1.27;;
75930;SDS011;64609;47.052;15.462;2023-04-24T12:00:25;2.60;;;1.30;;
75930;SDS011;64609;47.052;15.462;2023-04-24T12:02:59;1.60;;;1.20;;
75930;SDS011;64609;47.052;15.462;2023-04-24T12:05:32;5.47;;;1.60;;
75930;SDS011;64609;47.052;15.462;2023-04-24T12:07:59;2.08;;;1.10;;
75930;SDS011;64609;47.052;15.462;2023-04-24T12:10:26;3.97;;;1.38;;
75930;SDS011;64609;47.052;15.462;2023-04-24T12:12:54;4.72;;;1.40;;
75930;SDS011;64609;47.052;15.462;2023-04-24T12:15:21;2.97;;;1.10;;
75930;SDS011;64609;47.052;15.462;2023-04-24T12:17:47;2.63;;;1.40;;
75930;SDS011;64609;47.052;15.462;2023-04-24T12:20:15;1.92;;;1.40;;
75930;SDS011;64609;47.052;15.462;2023-04-24T12:25:13;2.47;;;1.10;;
75930;SDS011;64609;47.052;15.462;2023-04-24T12:27:46;1.13;;;1.00;;
75930;SDS011;64609;47.052;15.462;2023-04-24T12:30:20;2.05;;;1.10;;
75930;SDS011;64609;47.052;15.462;2023-04-24T12:32:51;1.88;;;1.10;;
75930;SDS011;64609;47.052;15.462;2023-04-24T12:35:20;1.77;;;1.10;;
75930;SDS011;64609;47.052;15.462;2023-04-24T12:37:47;1.45;;;1.20;;
75930;SDS011;64609;47.052;15.462;2023-04-24T12:40:13;1.30;;;1.10;;
75930;SDS011;64609;47.052;15.462;2023-04-24T12:42:44;1.58;;;1.20;;
75930;SDS011;64609;47.052;15.462;2023-04-24T12:45:11;3.50;;;1.30;;
75930;SDS011;64609;47.052;15.462;2023-04-24T12:47:37;2.75;;;1.00;;
75930;SDS011;64609;47.052;15.462;2023-04-24T12:50:04;2.63;;;1.10;;
75930;SDS011;64609;47.052;15.462;2023-04-24T12:52:31;1.40;;;1.00;;
75930;SDS011;64609;47.052;15.462;2023-04-24T12:54:57;1.10;;;1.00;;
75930;SDS011;64609;47.052;15.462;2023-04-24T12:57:25;1.05;;;0.82;;
75930;SDS011;64609;47.052;15.462;2023-04-24T12:59:56;1.20;;;0.93;;
75930;SDS011;64609;47.052;15.462;2023-04-24T13:02:27;5.85;;;0.75;;
75930;SDS011;64609;47.052;15.462;2023-04-24T13:04:54;5.38;;;0.70;;
75930;SDS011;64609;47.052;15.462;2023-04-24T13:07:20;2.03;;;0.80;;
75930;SDS011;64609;47.052;15.462;2023-04-24T13:09:47;0.93;;;0.57;;
75930;SDS011;64609;47.052;15.462;2023-04-24T13:12:13;1.08;;;0.60;;
75930;SDS011;64609;47.052;15.462;2023-04-24T13:14:39;0.50;;;0.50;;
75930;SDS011;64609;47.052;15.462;2023-04-24T13:17:05;0.60;;;0.60;;
75930;SDS011;64609;47.052;15.462;2023-04-24T13:19:39;0.63;;;0.40;;
75930;SDS011;64609;47.052;15.462;2023-04-24T13:22:06;1.27;;;0.60;;
75930;SDS011;64609;47.052;15.462;2023-04-24T13:24:32;0.50;;;0.50;;
75930;SDS011;64609;47.052;15.462;2023-04-24T13:26:58;0.85;;;0.68;;
75930;SDS011;64609;47.052;15.462;2023-04-24T13:29:25;0.85;;;0.70;;
75930;SDS011;64609;47.052;15.462;2023-04-24T13:31:51;0.90;;;0.75;;
75930;SDS011;64609;47.052;15.462;2023-04-24T13:34:19;3.15;;;0.80;;
75930;SDS011;64609;47.052;15.462;2023-04-24T13:36:53;0.90;;;0.60;;
75930;SDS011;64609;47.052;15.462;2023-04-24T13:39:21;1.80;;;1.10;;
75930;SDS011;64609;47.052;15.462;2023-04-24T13:41:47;2.97;;;0.90;;
75930;SDS011;64609;47.052;15.462;2023-04-24T13:44:13;1.75;;;0.90;;
75930;SDS011;64609;47.052;15.462;2023-04-24T13:46:40;2.70;;;0.90;;
75930;SDS011;64609;47.052;15.462;2023-04-24T13:49:06;1.23;;;0.90;;
75930;SDS011;64609;47.052;15.462;2023-04-24T13:51:32;1.63;;;0.93;;
75930;SDS011;64609;47.052;15.462;2023-04-24T13:53:58;1.25;;;1.00;;
75930;SDS011;64609;47.052;15.462;2023-04-24T13:56:24;1.38;;;0.80;;
75930;SDS011;64609;47.052;15.462;2023-04-24T13:58:51;2.60;;;0.90;;
75930;SDS011;64609;47.052;15.462;2023-04-24T14:01:16;3.40;;;0.85;;
75930;SDS011;64609;47.052;15.462;2023-04-24T14:03:42;1.20;;;0.95;;
75930;SDS011;64609;47.052;15.462;2023-04-24T14:06:11;2.67;;;1.00;;
75930;SDS011;64609;47.052;15.462;2023-04-24T14:08:36;1.27;;;0.80;;
75930;SDS011;64609;47.052;15.462;2023-04-24T14:11:02;0.90;;;0.90;;
75930;SDS011;64609;47.052;15.462;2023-04-24T14:13:28;2.08;;;0.80;;
75930;SDS011;64609;47.052;15.462;2023-04-24T14:15:53;3.67;;;1.10;;
75930;SDS011;64609;47.052;15.462;2023-04-24T14:18:19;1.15;;;1.05;;
75930;SDS011;64609;47.052;15.462;2023-04-24T14:20:45;1.88;;;1.00;;
75930;SDS011;64609;47.052;15.462;2023-04-24T14:23:10;1.02;;;0.93;;
75930;SDS011;64609;47.052;15.462;2023-04-24T14:25:36;3.08;;;1.10;;
75930;SDS011;64609;47.052;15.462;2023-04-24T14:28:02;3.05;;;1.10;;
75930;SDS011;64609;47.052;15.462;2023-04-24T14:30:28;1.77;;;1.20;;
75930;SDS011;64609;47.052;15.462;2023-04-24T14:32:53;3.65;;;1.17;;
75930;SDS011;64609;47.052;15.462;2023-04-24T14:35:19;1.25;;;1.10;;
75930;SDS011;64609;47.052;15.462;2023-04-24T14:37:45;1.27;;;1.17;;
75930;SDS011;64609;47.052;15.462;2023-04-24T14:40:11;1.88;;;1.23;;
75930;SDS011;64609;47.052;15.462;2023-04-24T14:42:36;1.65;;;1.30;;
75930;SDS011;64609;47.052;15.462;2023-04-24T14:45:02;1.95;;;1.00;;
75930;SDS011;64609;47.052;15.462;2023-04-24T14:47:28;2.10;;;1.30;;
75930;SDS011;64609;47.052;15.462;2023-04-24T14:49:54;2.60;;;1.20;;